createdAt,value
2022-12-16T00:02:03.524Z,18.00
2022-12-16T00:04:36.617Z,17.13
2022-12-16T00:07:09.064Z,16.20
2022-12-16T00:09:42.023Z,18.75
2022-12-16T00:12:14.546Z,17.35
2022-12-16T00:14:47.439Z,15.18
2022-12-16T00:17:19.970Z,19.05
2022-12-16T00:19:52.900Z,16.90
2022-12-16T00:22:25.458Z,17.65
2022-12-16T00:24:58.775Z,19.75
2022-12-16T00:27:31.242Z,18.05
2022-12-16T00:30:04.908Z,17.20
2022-12-16T00:32:37.383Z,20.02
2022-12-16T00:35:10.280Z,19.05
2022-12-16T00:37:42.849Z,17.23
2022-12-16T00:40:15.715Z,16.65
2022-12-16T00:42:48.308Z,18.23
2022-12-16T00:45:21.375Z,16.30
2022-12-16T00:47:53.890Z,21.42
2022-12-16T00:50:27.145Z,17.27
2022-12-16T00:52:59.638Z,20.60
2022-12-16T00:55:32.978Z,19.50
2022-12-16T00:58:06.438Z,22.20
2022-12-16T01:00:39.422Z,19.90
2022-12-16T01:03:16.709Z,19.15
2022-12-16T01:05:53.021Z,20.05
2022-12-16T01:08:26.232Z,19.73
2022-12-16T01:10:59.145Z,17.75
2022-12-16T01:13:32.222Z,17.88
2022-12-16T01:16:05.345Z,20.05
2022-12-16T01:18:38.065Z,19.00
2022-12-16T01:21:12.473Z,18.30
2022-12-16T01:23:45.125Z,18.63
2022-12-16T01:26:18.518Z,16.65
2022-12-16T01:28:51.163Z,17.55
2022-12-16T01:31:25.222Z,18.05
2022-12-16T01:33:57.864Z,21.55
2022-12-16T01:36:30.834Z,20.63
2022-12-16T01:39:03.470Z,20.02
2022-12-16T01:41:36.354Z,16.58
2022-12-16T01:44:35.001Z,15.35
2022-12-16T01:47:10.308Z,18.67
2022-12-16T01:49:54.942Z,17.27
2022-12-16T01:52:30.444Z,19.98
2022-12-16T01:55:07.559Z,16.73
2022-12-16T01:57:43.056Z,21.35
2022-12-16T02:00:15.769Z,15.30
2022-12-16T02:02:48.918Z,17.88
2022-12-16T02:05:24.793Z,17.02
2022-12-16T02:08:11.376Z,16.00
2022-12-16T02:10:43.907Z,18.25
2022-12-16T02:13:23.887Z,18.48
2022-12-16T02:15:59.200Z,18.60
2022-12-16T02:18:38.416Z,14.65
2022-12-16T02:21:29.352Z,15.90
2022-12-16T02:24:20.577Z,18.98
2022-12-16T02:26:55.770Z,17.35
2022-12-16T02:29:37.860Z,18.60
2022-12-16T02:35:03.495Z,16.50
2022-12-16T02:37:45.215Z,16.55
2022-12-16T02:40:23.406Z,14.55
2022-12-16T02:43:00.169Z,12.60
2022-12-16T02:45:34.722Z,17.05
2022-12-16T02:48:07.270Z,14.10
2022-12-16T02:50:41.870Z,14.95
2022-12-16T02:53:14.627Z,12.77
2022-12-16T02:55:50.461Z,14.20
2022-12-16T02:58:36.530Z,17.05
2022-12-16T03:01:20.229Z,16.10
2022-12-16T03:03:58.870Z,15.07
2022-12-16T03:06:33.704Z,17.40
2022-12-16T03:09:08.816Z,11.90
2022-12-16T03:11:43.647Z,15.20
2022-12-16T03:14:17.489Z,14.80
2022-12-16T03:16:51.545Z,15.20
2022-12-16T03:19:25.097Z,14.77
2022-12-16T03:22:11.278Z,14.57
2022-12-16T03:24:43.828Z,16.10
2022-12-16T03:27:29.465Z,12.35
2022-12-16T03:30:06.955Z,17.75
2022-12-16T03:32:42.222Z,14.73
2022-12-16T03:35:23.870Z,16.00
2022-12-16T03:37:58.454Z,15.73
2022-12-16T03:40:32.443Z,13.02
2022-12-16T03:43:05.823Z,13.13
2022-12-16T03:45:40.407Z,10.18
2022-12-16T03:48:14.235Z,14.57
2022-12-16T03:50:46.807Z,12.52
2022-12-16T03:53:19.737Z,14.60
2022-12-16T03:55:52.379Z,12.85
2022-12-16T03:58:25.376Z,16.50
2022-12-16T04:00:57.885Z,12.82
2022-12-16T04:03:31.247Z,12.40
2022-12-16T04:06:04.351Z,12.23
2022-12-16T04:08:37.222Z,15.00
2022-12-16T04:11:28.395Z,14.25
2022-12-16T04:14:19.711Z,15.40
2022-12-16T04:17:10.549Z,13.57
2022-12-16T04:20:03.338Z,13.73
2022-12-16T04:22:56.020Z,12.63
2022-12-16T04:25:30.357Z,13.80
2022-12-16T04:28:03.107Z,14.90
2022-12-16T04:30:36.228Z,15.00
2022-12-16T04:33:29.616Z,16.38
2022-12-16T04:36:21.184Z,15.75
2022-12-16T04:39:11.927Z,14.00
2022-12-16T04:42:03.103Z,15.45
2022-12-16T04:44:54.002Z,17.92
2022-12-16T04:48:05.022Z,14.35
2022-12-16T04:50:56.120Z,15.95
2022-12-16T04:53:47.476Z,17.88
2022-12-16T04:56:38.331Z,15.82
2022-12-16T04:59:29.571Z,14.40
2022-12-16T05:02:20.819Z,17.95
2022-12-16T05:08:03.337Z,18.05
2022-12-16T05:10:54.461Z,14.30
2022-12-16T05:13:46.084Z,15.73
2022-12-16T05:16:37.320Z,15.35
2022-12-16T05:19:31.723Z,13.80
2022-12-16T05:22:23.365Z,13.45
2022-12-16T05:25:14.513Z,15.80
2022-12-16T05:28:09.146Z,15.90
2022-12-16T05:31:00.339Z,15.93
2022-12-16T05:33:51.631Z,16.50
2022-12-16T05:36:42.629Z,14.65
2022-12-16T05:39:33.888Z,13.98
2022-12-16T05:42:25.173Z,13.77
2022-12-16T05:45:16.313Z,13.93
2022-12-16T05:48:08.054Z,13.50
2022-12-16T05:50:59.445Z,16.25
2022-12-16T05:53:50.590Z,13.95
2022-12-16T05:56:41.880Z,14.57
2022-12-16T05:59:33.195Z,14.97
2022-12-16T06:02:24.471Z,15.95
2022-12-16T06:05:15.991Z,12.93
2022-12-16T06:08:10.805Z,14.10
2022-12-16T06:11:02.018Z,13.45
2022-12-16T06:13:53.279Z,14.05
2022-12-16T06:16:44.345Z,13.80
2022-12-16T06:19:35.620Z,12.60
2022-12-16T06:22:26.736Z,14.10
2022-12-16T06:25:17.987Z,12.65
2022-12-16T06:28:10.270Z,13.38
2022-12-16T06:31:01.678Z,14.93
2022-12-16T06:33:54.929Z,13.63
2022-12-16T06:36:47.323Z,11.30
2022-12-16T06:39:38.587Z,14.10
2022-12-16T06:42:30.665Z,11.93
2022-12-16T06:45:23.608Z,13.27
2022-12-16T06:48:15.171Z,15.50
2022-12-16T06:51:06.302Z,13.30
2022-12-16T06:53:57.756Z,15.68
2022-12-16T06:56:48.683Z,13.73
2022-12-16T06:59:40.012Z,16.60
2022-12-16T07:02:31.294Z,14.03
2022-12-16T07:05:23.539Z,12.50
2022-12-16T07:08:14.670Z,15.02
2022-12-16T07:11:16.070Z,10.65
2022-12-16T07:14:08.819Z,13.23
2022-12-16T07:16:59.975Z,11.32
2022-12-16T07:19:51.070Z,13.90
2022-12-16T07:22:42.427Z,11.77
2022-12-16T07:25:33.534Z,11.98
2022-12-16T07:28:24.635Z,12.48
2022-12-16T07:31:16.133Z,11.53
2022-12-16T07:34:07.233Z,12.30
2022-12-16T07:36:59.230Z,11.82
2022-12-16T07:39:54.879Z,12.13
2022-12-16T07:42:55.983Z,14.75
2022-12-16T07:45:47.673Z,12.80
2022-12-16T07:48:38.884Z,12.73
2022-12-16T07:51:30.107Z,15.75
2022-12-16T07:54:21.234Z,33.93
2022-12-16T07:57:12.711Z,35.17
2022-12-16T08:00:03.937Z,29.50
2022-12-16T08:03:03.186Z,38.65
2022-12-16T08:05:54.255Z,21.77
2022-12-16T08:08:45.432Z,15.82
2022-12-16T08:11:36.629Z,21.00
2022-12-16T08:14:27.797Z,18.83
2022-12-16T08:17:18.975Z,15.20
2022-12-16T08:20:10.317Z,14.40
2022-12-16T08:23:01.296Z,12.83
2022-12-16T08:25:52.684Z,11.00
2022-12-16T08:28:46.457Z,12.93
2022-12-16T08:31:37.815Z,13.35
2022-12-16T08:34:28.640Z,13.68
2022-12-16T08:37:20.539Z,14.02
2022-12-16T08:40:34.188Z,13.35
2022-12-16T08:43:22.973Z,11.35
2022-12-16T08:46:14.644Z,12.93
2022-12-16T08:49:05.966Z,14.00
2022-12-16T08:51:57.177Z,11.10
2022-12-16T08:54:48.513Z,12.25
2022-12-16T08:57:39.944Z,17.70
2022-12-16T09:03:22.545Z,12.95
2022-12-16T09:09:05.331Z,11.23
2022-12-16T09:11:56.443Z,12.25
2022-12-16T09:14:47.500Z,13.55
2022-12-16T09:17:38.999Z,12.85
2022-12-16T09:20:30.163Z,12.63
2022-12-16T09:23:21.706Z,16.10
2022-12-16T09:26:12.592Z,14.52
2022-12-16T09:29:03.952Z,13.85
2022-12-16T09:31:55.048Z,16.50
2022-12-16T09:34:47.411Z,15.32
2022-12-16T09:37:38.157Z,13.07
2022-12-16T09:40:33.459Z,15.23
2022-12-16T09:43:24.633Z,13.75
2022-12-16T09:46:40.959Z,14.32
2022-12-16T09:49:37.116Z,16.48
2022-12-16T09:52:33.424Z,15.00
2022-12-16T09:55:26.247Z,17.13
2022-12-16T09:58:17.755Z,15.18
2022-12-16T10:01:09.239Z,15.82
2022-12-16T10:07:01.388Z,17.17
2022-12-16T10:09:55.664Z,18.17
2022-12-16T10:12:59.855Z,17.15
2022-12-16T10:15:57.001Z,13.98
2022-12-16T10:19:03.627Z,16.27
2022-12-16T10:22:07.000Z,14.95
2022-12-16T10:25:07.311Z,17.17
2022-12-16T10:28:03.950Z,14.55
2022-12-16T10:30:56.806Z,14.95
2022-12-16T10:33:48.526Z,13.75
2022-12-16T10:36:42.312Z,15.85
2022-12-16T10:39:43.114Z,15.50
2022-12-16T10:42:37.875Z,13.43
2022-12-16T10:46:09.299Z,14.70
2022-12-16T10:49:00.757Z,16.15
2022-12-16T10:54:47.395Z,15.05
2022-12-16T10:57:56.200Z,15.95
2022-12-16T11:01:04.706Z,15.65
2022-12-16T11:04:02.162Z,17.23
2022-12-16T11:06:53.081Z,17.90
2022-12-16T11:09:47.995Z,16.73
2022-12-16T11:12:46.736Z,17.60
2022-12-16T11:15:41.644Z,16.02
2022-12-16T11:18:35.050Z,17.13
2022-12-16T11:21:34.479Z,18.88
2022-12-16T11:24:30.051Z,17.73
2022-12-16T11:27:22.866Z,20.27
2022-12-16T11:30:18.329Z,17.67
2022-12-16T11:33:16.025Z,16.77
2022-12-16T11:36:10.646Z,13.80
2022-12-16T11:39:05.110Z,18.02
2022-12-16T11:42:05.266Z,17.58
2022-12-16T11:45:01.460Z,14.52
2022-12-16T11:48:04.938Z,18.52
2022-12-16T11:51:01.740Z,19.20
2022-12-16T11:53:59.270Z,17.85
2022-12-16T11:56:56.141Z,20.08
2022-12-16T11:59:53.372Z,16.15
2022-12-16T12:03:06.588Z,17.20
2022-12-16T12:06:01.804Z,16.48
2022-12-16T12:09:12.083Z,16.98
2022-12-16T12:12:15.881Z,21.58
2022-12-16T12:15:07.013Z,17.85
2022-12-16T12:18:01.228Z,19.52
2022-12-16T12:20:52.682Z,16.02
2022-12-16T12:24:02.081Z,18.77
2022-12-16T12:26:55.186Z,17.25
2022-12-16T12:29:56.367Z,17.10
2022-12-16T12:32:47.521Z,17.80
2022-12-16T12:35:57.243Z,15.65
2022-12-16T12:38:54.331Z,19.02
2022-12-16T12:41:50.235Z,16.08
2022-12-16T12:45:00.514Z,16.10
2022-12-16T12:47:52.185Z,16.58
2022-12-16T12:50:59.519Z,14.82
2022-12-16T12:54:05.362Z,15.95
2022-12-16T12:57:04.767Z,20.00
2022-12-16T13:00:08.156Z,15.25
2022-12-16T13:03:09.262Z,17.50
2022-12-16T13:06:02.555Z,15.45
2022-12-16T13:08:57.511Z,18.85
2022-12-16T13:11:48.538Z,18.98
2022-12-16T13:14:51.928Z,15.55
2022-12-16T13:17:44.194Z,16.98
2022-12-16T13:20:51.386Z,17.85
2022-12-16T13:23:50.318Z,17.95
2022-12-16T13:26:43.106Z,18.20
2022-12-16T13:29:39.870Z,17.92
2022-12-16T13:32:31.097Z,17.35
2022-12-16T13:35:25.026Z,18.33
2022-12-16T13:38:21.417Z,16.35
2022-12-16T13:41:14.081Z,15.13
2022-12-16T13:44:05.820Z,17.05
2022-12-16T13:47:06.199Z,17.10
2022-12-16T13:50:10.651Z,19.98
2022-12-16T13:53:01.769Z,18.00
2022-12-16T13:55:56.256Z,15.65
2022-12-16T13:58:55.507Z,17.58
2022-12-16T14:01:55.984Z,15.77
2022-12-16T14:05:19.431Z,22.00
2022-12-16T14:08:11.083Z,20.95
2022-12-16T14:11:02.350Z,19.08
2022-12-16T14:14:02.229Z,19.10
2022-12-16T14:16:53.495Z,23.20
2022-12-16T14:19:55.622Z,19.73
2022-12-16T14:22:46.692Z,19.15
2022-12-16T14:25:39.944Z,19.20
2022-12-16T14:28:50.627Z,20.08
2022-12-16T14:31:42.454Z,21.15
2022-12-16T14:34:55.547Z,21.70
2022-12-16T14:37:54.815Z,17.33
2022-12-16T14:40:50.316Z,17.85
2022-12-16T14:43:43.635Z,20.50
2022-12-16T14:46:47.152Z,20.92
2022-12-16T14:49:40.594Z,20.67
2022-12-16T14:52:36.116Z,19.08
2022-12-16T14:55:32.447Z,21.23
2022-12-16T14:58:25.160Z,19.75
2022-12-16T15:01:17.953Z,22.10
2022-12-16T15:04:09.279Z,20.83
2022-12-16T15:09:58.619Z,19.92
2022-12-16T15:13:00.868Z,20.63
2022-12-16T15:18:46.530Z,21.92
2022-12-16T15:21:38.412Z,22.42
2022-12-16T15:24:35.056Z,20.27
2022-12-16T15:27:33.337Z,23.73
2022-12-16T15:30:43.676Z,17.58
2022-12-16T15:33:36.109Z,20.92
2022-12-16T15:36:43.589Z,20.67
2022-12-16T15:39:37.830Z,17.70
2022-12-16T15:42:48.272Z,20.88
2022-12-16T15:45:45.021Z,23.02
2022-12-16T15:48:39.228Z,19.08
2022-12-16T15:51:45.817Z,19.15
2022-12-16T15:54:39.804Z,23.17
2022-12-16T15:57:46.409Z,24.08
2022-12-16T16:00:47.833Z,26.38
2022-12-16T16:03:46.217Z,25.13
2022-12-16T16:06:41.805Z,23.85
2022-12-16T16:09:33.071Z,25.13
2022-12-16T16:12:24.349Z,25.60
2022-12-16T16:15:15.410Z,24.77
2022-12-16T16:18:09.632Z,24.33
2022-12-16T16:21:01.318Z,21.83
2022-12-16T16:23:53.192Z,21.33
2022-12-16T16:26:45.261Z,18.35
2022-12-16T16:29:37.100Z,20.10
2022-12-16T16:32:30.983Z,23.77
2022-12-16T16:35:24.033Z,22.05
2022-12-16T16:38:18.428Z,21.63
2022-12-16T16:41:10.374Z,20.73
2022-12-16T16:44:01.564Z,21.10
2022-12-16T16:46:57.647Z,19.50
2022-12-16T16:49:50.735Z,21.33
2022-12-16T16:52:42.903Z,20.85
2022-12-16T16:55:38.969Z,21.25
2022-12-16T16:58:35.422Z,17.02
2022-12-16T17:01:30.937Z,16.75
2022-12-16T17:04:23.091Z,18.60
2022-12-16T17:07:14.339Z,20.23
2022-12-16T17:10:05.577Z,17.65
2022-12-16T17:13:04.283Z,24.83
2022-12-16T17:15:56.512Z,22.42
2022-12-16T17:18:52.119Z,22.23
2022-12-16T17:21:44.413Z,24.67
2022-12-16T17:24:35.670Z,24.33
2022-12-16T17:27:34.631Z,20.98
2022-12-16T17:30:30.359Z,21.13
2022-12-16T17:33:22.101Z,17.20
2022-12-16T17:36:13.191Z,23.42
2022-12-16T17:39:04.962Z,25.58
2022-12-16T17:41:55.967Z,20.55
2022-12-16T17:44:47.183Z,25.52
2022-12-16T17:47:45.778Z,23.73
2022-12-16T17:50:36.872Z,20.25
2022-12-16T17:53:27.838Z,21.98
2022-12-16T17:56:23.261Z,21.90
2022-12-16T17:59:14.403Z,19.35
2022-12-16T18:02:05.882Z,18.65
2022-12-16T18:04:57.041Z,17.35
2022-12-16T18:07:48.253Z,19.50
2022-12-16T18:10:42.868Z,18.98
2022-12-16T18:13:34.472Z,20.00
2022-12-16T18:16:26.060Z,20.27
2022-12-16T18:19:17.418Z,22.42
2022-12-16T18:22:08.434Z,20.98
2022-12-16T18:24:59.650Z,20.40
2022-12-16T18:27:50.436Z,25.00
2022-12-16T18:30:42.046Z,20.33
2022-12-16T18:33:33.336Z,19.02
2022-12-16T18:36:25.631Z,18.35
2022-12-16T18:39:17.156Z,24.42
2022-12-16T18:42:08.521Z,22.55
2022-12-16T18:45:01.216Z,21.60
2022-12-16T18:47:53.088Z,25.02
2022-12-16T18:50:44.015Z,21.53
2022-12-16T18:53:35.836Z,24.02
2022-12-16T18:59:18.437Z,23.75
2022-12-16T19:02:09.549Z,28.43
2022-12-16T19:05:01.102Z,24.13
2022-12-16T19:07:52.252Z,22.25
2022-12-16T19:10:43.843Z,24.80
2022-12-16T19:13:35.033Z,21.95
2022-12-16T19:16:26.844Z,24.13
2022-12-16T19:19:20.241Z,25.50
2022-12-16T19:22:11.894Z,20.92
2022-12-16T19:25:03.102Z,25.05
2022-12-16T19:27:56.773Z,19.63
2022-12-16T19:30:48.025Z,20.48
2022-12-16T19:33:39.249Z,18.33
2022-12-16T19:36:30.364Z,20.30
2022-12-16T19:39:21.581Z,21.38
2022-12-16T19:42:12.730Z,19.63
2022-12-16T19:45:04.126Z,19.63
2022-12-16T19:47:55.018Z,18.92
2022-12-16T19:50:47.961Z,16.42
2022-12-16T19:53:39.135Z,14.10
2022-12-16T19:56:30.430Z,19.13
2022-12-16T19:59:21.532Z,20.95
2022-12-16T20:02:13.101Z,21.90
2022-12-16T20:05:04.208Z,20.30
2022-12-16T20:07:56.407Z,19.75
2022-12-16T20:10:48.188Z,21.88
2022-12-16T20:13:39.402Z,21.25
2022-12-16T20:16:30.516Z,18.38
2022-12-16T20:19:21.780Z,19.60
2022-12-16T20:22:16.480Z,19.52
2022-12-16T20:25:07.911Z,19.70
2022-12-16T20:27:59.048Z,23.70
2022-12-16T20:30:50.375Z,22.80
2022-12-16T20:33:41.729Z,19.50
2022-12-16T20:36:33.353Z,22.02
2022-12-16T20:39:24.600Z,24.17
2022-12-16T20:42:15.826Z,21.63
2022-12-16T20:45:07.607Z,23.20
2022-12-16T20:47:58.832Z,20.77
2022-12-16T20:50:49.977Z,20.47
2022-12-16T20:53:42.184Z,19.13
2022-12-16T20:56:33.606Z,21.02
2022-12-16T20:59:24.820Z,21.10
2022-12-16T21:05:27.378Z,22.25
2022-12-16T21:08:18.663Z,19.55
2022-12-16T21:11:10.026Z,20.50
2022-12-16T21:14:01.080Z,21.53
2022-12-16T21:14:42.734Z,18.63
2022-12-16T21:16:52.300Z,22.50
2022-12-16T21:19:47.532Z,19.23
2022-12-16T21:22:38.699Z,20.85
2022-12-16T21:25:29.754Z,20.75
2022-12-16T21:28:21.039Z,20.55
2022-12-16T21:31:12.250Z,20.77
2022-12-16T21:34:03.500Z,20.35
2022-12-16T21:36:56.057Z,24.97
2022-12-16T21:39:47.566Z,24.80
2022-12-16T21:42:43.671Z,21.90
2022-12-16T21:45:35.311Z,20.83
2022-12-16T21:48:29.570Z,20.05
2022-12-16T21:51:20.820Z,24.00
2022-12-16T21:54:11.943Z,21.43
2022-12-16T21:57:03.837Z,20.83
2022-12-16T21:59:56.359Z,23.05
2022-12-16T22:02:48.078Z,26.13
2022-12-16T22:05:39.380Z,22.50
2022-12-16T22:08:30.719Z,19.42
2022-12-16T22:11:29.049Z,20.13
2022-12-16T22:14:20.322Z,22.88
2022-12-16T22:17:11.268Z,23.95
2022-12-16T22:20:02.618Z,23.85
2022-12-16T22:22:53.779Z,22.40
2022-12-16T22:25:47.363Z,24.80
2022-12-16T22:28:38.481Z,24.42
2022-12-16T22:31:29.685Z,22.42
2022-12-16T22:34:20.838Z,19.97
2022-12-16T22:37:11.990Z,19.27
2022-12-16T22:40:03.175Z,21.47
2022-12-16T22:42:54.400Z,17.45
2022-12-16T22:45:47.080Z,23.88
2022-12-16T22:48:38.454Z,20.67
2022-12-16T22:51:33.026Z,21.92
2022-12-16T22:54:24.239Z,20.02
2022-12-16T22:57:15.484Z,16.53
2022-12-16T23:00:07.395Z,18.65
2022-12-16T23:02:58.484Z,21.20
2022-12-16T23:05:49.827Z,20.02
2022-12-16T23:08:41.034Z,20.75
2022-12-16T23:11:40.337Z,21.40
2022-12-16T23:14:30.986Z,19.70
2022-12-16T23:17:22.474Z,25.38
2022-12-16T23:20:13.548Z,24.70
2022-12-16T23:23:24.530Z,25.77
2022-12-16T23:26:16.364Z,22.95
2022-12-16T23:29:09.168Z,19.55
2022-12-16T23:32:00.347Z,19.90
2022-12-16T23:34:51.499Z,20.92
2022-12-16T23:40:34.748Z,23.33
2022-12-16T23:43:25.611Z,23.10
2022-12-16T23:46:16.904Z,22.00
2022-12-16T23:49:07.999Z,26.13
2022-12-16T23:51:59.023Z,24.23
2022-12-16T23:54:49.872Z,21.17
2022-12-16T23:57:41.272Z,22.38
